Saturday, December 16, 2017, 2:01 AM EST
Back to Local

KEEN, Keene, Dillant-hopkins Airport

Location: Keene, NH, United States Lat: 42.9
Local Time: 2:01 AM EST ( 7:01 GMT) Lon: -72.267
Time Zone: US/Eastern Elev: 488 ft

Show me the last for .
Show Decoded

2017-12-16 00:56 METAR KEEN 160556Z AUTO 00000KT 10SM OVC095 M10/M11 A2979 RMK AO2 SLP109
                 T11001111 11072 21100 58014 FZRANO =
2017-12-15 23:56 METAR KEEN 160456Z AUTO 00000KT 10SM FEW050 BKN070 OVC100 M08/M10 A2981 RMK AO2
                 SLP114 T10831100 410441194 FZRANO =
2017-12-15 22:56 METAR KEEN 160356Z AUTO 00000KT 10SM OVC048 M08/M10 A2983 RMK AO2 SLP120
                 T10831100 FZRANO =
2017-12-15 21:56 METAR KEEN 160256Z AUTO 00000KT 10SM BKN034 OVC100 M08/M09 A2983 RMK AO2 SLP123
                 T10831094 58003 FZRANO =
2017-12-15 20:56 METAR KEEN 160156Z AUTO 00000KT 10SM OVC095 M08/M10 A2983 RMK AO2 SLP124
                 T10831100 FZRANO =
2017-12-15 19:56 METAR KEEN 160056Z AUTO 00000KT 10SM FEW075 OVC090 M08/M10 A2985 RMK AO2 SLP129
                 T10781100 FZRANO =
2017-12-15 18:56 METAR KEEN 152356Z AUTO 21003KT 10SM OVC085 M07/M09 A2984 RMK AO2 SLP128 60000
                 T10721094 11044 21072 56023 FZRANO =
2017-12-15 17:56 METAR KEEN 152256Z AUTO 00000KT 10SM FEW060 OVC100 M07/M11 A2985 RMK AO2 SLP130
                 T10721106 FZRANO =
2017-12-15 16:56 METAR KEEN 152156Z AUTO 00000KT 10SM OVC065 M07/M10 A2988 RMK AO2 SNB05E18
                 SLP140 P0000 T10671100 FZRANO =
2017-12-15 15:56 METAR KEEN 152056Z AUTO 00000KT 10SM OVC090 M06/M10 A2991 RMK AO2 SLP152
                 T10611100 56021 FZRANO =
2017-12-15 14:56 METAR KEEN 151956Z AUTO 00000KT 10SM OVC100 M05/M09 A2994 RMK AO2 SLP159
                 T10501089 FZRANO =
2017-12-15 13:56 METAR KEEN 151856Z AUTO 00000KT 10SM BKN120 M04/M07 A2995 RMK AO2 SLP164
                 T10441072 FZRANO =
2017-12-15 12:56 METAR KEEN 151756Z AUTO 00000KT 10SM CLR M06/M08 A2998 RMK AO2 SLP172 T10561083
                 11050 21194 58035 FZRANO =
2017-12-15 11:56 METAR KEEN 151656Z AUTO 00000KT 10SM CLR M07/M09 A3001 RMK AO2 SLP183 T10671094
                 FZRANO =
2017-12-15 10:56 METAR KEEN 151556Z AUTO 01004KT 10SM CLR M11/M13 A3005 RMK AO2 SLP197 T11061133
                 FZRANO =
2017-12-15 09:56 METAR KEEN 151456Z AUTO 00000KT 9SM CLR M11/M13 A3008 RMK AO2 SLP207 T11061133
                 50009 FZRANO =
2017-12-15 08:56 METAR KEEN 151356Z AUTO 00000KT 9SM CLR M16/M17 A3008 RMK AO2 SLP209 T11561172
                 FZRANO =
2017-12-15 07:56 METAR KEEN 151256Z AUTO 00000KT 10SM CLR M19/M21 A3007 RMK AO2 SLP202 T11891206
                 FZRANO =
2017-12-15 06:56 METAR KEEN 151156Z AUTO 19003KT 10SM CLR M19/M21 A3005 RMK AO2 SLP199 T11941211
                 11172 21194 53007 FZRANO =
2017-12-15 05:56 METAR KEEN 151056Z AUTO 00000KT 10SM CLR M19/M22 A3004 RMK AO2 SLP195 T11941217
                 FZRANO =
2017-12-15 04:56 METAR KEEN 150956Z AUTO 00000KT 10SM CLR M19/M20 A3004 RMK AO2 SLP193 T11891200
                 FZRANO =
2017-12-15 03:56 METAR KEEN 150856Z AUTO 00000KT 10SM CLR M19/M21 A3003 RMK AO2 SLP192 T11891211
                 51017 FZRANO =
2017-12-15 02:56 METAR KEEN 150756Z AUTO 00000KT 10SM CLR M18/M21 A3003 RMK AO2 SLP190 T11831206
                 FZRANO =

Support USWX by starting your Amazon purchase here.